DLH370 LIRP-ETAR
Flight info
| Callsign | DLH370 |
|---|---|
| Flight time | N/A |
| Altitude | 38000 |
| Route | SPEZI DCT LUKIM DCT DESIP DCT CANNE DCT TITIX DCT NATOR DCT KRH |
| Aircraft | B742/H-SDFHIRWXY/L |
Departure
| Time | 2026-05-05 20:57 |
|---|---|
| Airport | Pisa International Airport (LIRP) |
Arrival
| Time | N/A |
|---|---|
| Airport | Ramstein Air Base (ETAR) |
| Time | Latitude | Longitude | Altitude | Speed | Heading |
|---|---|---|---|---|---|
| 2026-05-05 20:31 | 43.69044 | 10.40743 | 15 ft | 0 kts | 36° |
| 2026-05-05 20:51 | 43.69049 | 10.40749 | 15 ft | 2 kts | 35° |
| 2026-05-05 20:52 | 43.69074 | 10.40771 | 15 ft | 4 kts | 25° |
| 2026-05-05 20:52 | 43.69120 | 10.40770 | 15 ft | 8 kts | 345° |
| 2026-05-05 20:52 | 43.69175 | 10.40727 | 15 ft | 10 kts | 327° |
| 2026-05-05 20:52 | 43.69247 | 10.40668 | 15 ft | 13 kts | 331° |
| 2026-05-05 20:53 | 43.69336 | 10.40600 | 15 ft | 15 kts | 331° |
| 2026-05-05 20:53 | 43.69410 | 10.40546 | 15 ft | 10 kts | 321° |
| 2026-05-05 20:53 | 43.69401 | 10.40482 | 15 ft | 0 kts | 217° |
| 2026-05-05 20:53 | 43.69400 | 10.40482 | 15 ft | 0 kts | 217° |
| 2026-05-05 20:56 | 43.69265 | 10.40340 | 15 ft | 63 kts | 216° |
| 2026-05-05 20:56 | 43.68695 | 10.39755 | 15 ft | 138 kts | 216° |
| 2026-05-05 20:57 | 43.67439 | 10.38424 | 332 ft | 189 kts | 216° |
| 2026-05-05 20:57 | 43.66729 | 10.37682 | 774 ft | 198 kts | 216° |
| 2026-05-05 20:57 | 43.65606 | 10.36533 | 1495 ft | 212 kts | 215° |
| 2026-05-05 20:57 | 43.64386 | 10.35229 | 2225 ft | 228 kts | 222° |
| 2026-05-05 20:58 | 43.63536 | 10.33454 | 3273 ft | 230 kts | 252° |
| 2026-05-05 20:58 | 43.63573 | 10.31298 | 4213 ft | 237 kts | 287° |
| 2026-05-05 20:58 | 43.64320 | 10.29277 | 5242 ft | 238 kts | 297° |
| 2026-05-05 20:58 | 43.65029 | 10.27204 | 6089 ft | 241 kts | 281° |
| 2026-05-05 20:59 | 43.65197 | 10.24956 | 7015 ft | 237 kts | 266° |
| 2026-05-05 20:59 | 43.65275 | 10.22701 | 7857 ft | 239 kts | 277° |